Time;durP1;ratioP1;P1;durP2;ratioP2;P2;SDS_P1;SDS_P2;PMS_P1;PMS_P2;Temp;Humidity;BMP_temperature;BMP_pressure;BME280_temperature;BME280_humidity;BME280_pressure;Samples;Min_cycle;Max_cycle;Signal;HPM_P1;HPM_P2
2022/10/03 00:02:18;;;;;;;3.03;1.13;;;12.90;99.90;;;;;;5017187;28;20049;-88
2022/10/03 00:05:02;;;;;;;2.53;0.98;;;12.90;99.90;;;;;;5017148;28;20030;-85
2022/10/03 00:07:44;;;;;;;1.73;0.95;;;12.90;99.90;;;;;;5016763;28;20037;-87
2022/10/03 00:10:40;;;;;;;2.88;1.02;;;12.90;99.90;;;;;;5020877;28;20056;-85
2022/10/03 00:13:42;;;;;;;5.03;1.20;;;12.90;99.90;;;;;;5021831;28;20042;-83
2022/10/03 00:16:14;;;;;;;9.95;1.33;;;12.80;99.90;;;;;;5021403;28;20038;-84
2022/10/03 00:19:12;;;;;;;2.15;1.20;;;12.80;99.90;;;;;;5020792;28;20077;-83
2022/10/03 00:22:17;;;;;;;4.68;1.27;;;12.70;99.90;;;;;;5021236;28;20034;-84
2022/10/03 00:24:58;;;;;;;2.25;1.00;;;12.70;99.90;;;;;;5035002;28;20062;-84
2022/10/03 00:27:27;;;;;;;2.60;1.08;;;12.80;99.90;;;;;;5015807;28;20438;-86
2022/10/03 00:30:21;;;;;;;1.52;1.17;;;12.70;99.90;;;;;;5013433;28;20054;-87
2022/10/03 00:32:56;;;;;;;1.48;0.88;;;12.70;99.90;;;;;;5015346;28;20038;-85
2022/10/03 00:35:34;;;;;;;2.88;1.20;;;12.80;99.90;;;;;;5018245;28;20019;-83
2022/10/03 00:38:11;;;;;;;3.35;1.20;;;12.80;99.90;;;;;;5020364;28;20042;-83
2022/10/03 00:41:02;;;;;;;2.15;1.10;;;12.80;99.90;;;;;;5020690;28;20039;-84
2022/10/03 00:43:49;;;;;;;5.30;1.30;;;12.80;99.90;;;;;;5021246;28;20028;-84
2022/10/03 00:46:42;;;;;;;3.67;1.27;;;12.90;99.90;;;;;;5020456;28;20046;-84
2022/10/03 00:49:18;;;;;;;5.72;1.20;;;12.90;99.90;;;;;;5015113;28;20050;-84
2022/10/03 00:52:21;;;;;;;2.17;1.30;;;12.80;99.90;;;;;;5020095;28;20032;-84
2022/10/03 00:54:59;;;;;;;2.80;1.30;;;12.80;99.90;;;;;;5019511;28;20070;-86
2022/10/03 00:57:41;;;;;;;5.38;1.30;;;12.80;99.90;;;;;;5018879;28;20025;-88
2022/10/03 01:00:29;;;;;;;3.38;1.00;;;12.80;99.90;;;;;;5017535;28;20045;-84
2022/10/03 01:03:04;;;;;;;4.00;1.20;;;12.90;99.90;;;;;;5019669;28;20076;-83
2022/10/03 01:05:51;;;;;;;2.05;1.05;;;12.90;99.90;;;;;;5019254;28;20033;-83
2022/10/03 01:08:34;;;;;;;3.60;1.33;;;12.80;99.90;;;;;;5018338;28;20082;-83
2022/10/03 01:11:09;;;;;;;2.78;1.40;;;12.90;99.90;;;;;;5018868;28;20044;-85
2022/10/03 01:14:07;;;;;;;2.30;1.30;;;12.80;99.90;;;;;;5017996;28;20057;-85
2022/10/03 01:16:47;;;;;;;4.03;1.40;;;12.80;99.90;;;;;;5005376;28;20046;-86
2022/10/03 01:19:40;;;;;;;2.75;1.27;;;12.90;99.90;;;;;;5007528;28;20035;-88
2022/10/03 01:22:27;;;;;;;7.85;1.70;;;12.90;99.90;;;;;;5008487;28;20030;-87
2022/10/03 01:25:17;;;;;;;4.72;1.48;;;12.90;99.90;;;;;;5013403;28;20018;-86
2022/10/03 01:30:54;;;;;;;4.95;1.20;;;13.00;99.90;;;;;;5016283;28;20041;-86
2022/10/03 01:33:45;;;;;;;5.22;1.85;;;13.00;99.90;;;;;;5012024;28;20332;-87
2022/10/03 01:36:32;;;;;;;3.83;1.60;;;13.00;99.90;;;;;;5008118;28;20462;-86
2022/10/03 01:39:23;;;;;;;6.53;1.50;;;13.10;99.90;;;;;;5005364;28;20085;-88
2022/10/03 01:42:01;;;;;;;2.47;1.38;;;13.10;99.90;;;;;;5006399;28;20093;-87
2022/10/03 01:44:39;;;;;;;10.20;2.05;;;13.10;99.90;;;;;;5005848;28;20168;-87
2022/10/03 01:47:08;;;;;;;5.80;1.73;;;13.10;99.90;;;;;;5005197;28;20026;-88
2022/10/03 01:49:41;;;;;;;2.22;1.50;;;13.10;99.90;;;;;;5004751;28;20058;-87
2022/10/03 01:52:19;;;;;;;3.05;1.30;;;13.10;99.90;;;;;;5004804;28;20038;-88
2022/10/03 01:54:58;;;;;;;3.28;1.60;;;13.10;99.90;;;;;;5004075;28;20018;-87
2022/10/03 01:57:42;;;;;;;7.32;1.75;;;13.10;99.90;;;;;;5003644;28;20142;-87
2022/10/03 02:00:37;;;;;;;4.30;1.58;;;13.00;99.90;;;;;;5004261;28;20073;-88
2022/10/03 02:03:26;;;;;;;3.92;1.45;;;13.00;99.90;;;;;;5004278;28;20031;-87
2022/10/03 02:06:20;;;;;;;9.02;1.95;;;13.00;99.90;;;;;;5007903;28;20049;-87
2022/10/03 02:09:05;;;;;;;3.45;1.60;;;13.00;99.90;;;;;;5005821;28;20417;-86
2022/10/03 02:11:52;;;;;;;5.70;1.95;;;13.00;99.90;;;;;;5003892;28;20107;-86
2022/10/03 02:14:23;;;;;;;2.33;1.70;;;13.00;99.90;;;;;;4987626;28;20034;-87
2022/10/03 02:17:02;;;;;;;2.97;1.45;;;13.00;99.90;;;;;;4987970;28;20121;-86
2022/10/03 02:19:47;;;;;;;5.70;1.50;;;13.00;99.90;;;;;;4990153;28;20044;-84
2022/10/03 02:22:28;;;;;;;4.20;1.65;;;12.90;99.90;;;;;;4993350;28;20078;-86
2022/10/03 02:25:11;;;;;;;5.80;1.48;;;12.90;99.90;;;;;;4991745;28;20058;-84
2022/10/03 02:28:00;;;;;;;6.43;2.10;;;12.90;99.90;;;;;;4976067;28;20049;-86
2022/10/03 02:31:03;;;;;;;5.07;1.60;;;12.90;99.90;;;;;;4992615;28;20026;-86
2022/10/03 02:34:06;;;;;;;5.93;2.17;;;12.90;99.90;;;;;;4956172;28;20051;-84
2022/10/03 02:36:55;;;;;;;2.75;1.75;;;12.80;99.90;;;;;;4991049;28;20039;-86
2022/10/03 02:39:30;;;;;;;3.65;1.77;;;12.90;99.90;;;;;;4989927;28;20034;-89
2022/10/03 02:42:04;;;;;;;;;;;12.90;99.90;;;;;;4991133;28;20506;-86
2022/10/03 02:44:48;;;;;;;5.80;1.52;;;12.90;99.90;;;;;;4991058;28;19981;-84
2022/10/03 02:47:50;;;;;;;8.93;2.13;;;12.90;99.90;;;;;;4992930;28;20035;-84
2022/10/03 02:50:34;;;;;;;3.70;1.55;;;12.80;99.90;;;;;;4992899;28;20014;-85
2022/10/03 02:53:21;;;;;;;3.85;1.70;;;12.80;99.90;;;;;;4989115;28;20027;-86
2022/10/03 02:55:58;;;;;;;5.55;2.20;;;12.70;99.90;;;;;;4988051;28;20062;-83
2022/10/03 02:58:46;;;;;;;7.65;1.88;;;12.70;99.90;;;;;;4986802;28;20026;-83
2022/10/03 03:01:51;;;;;;;5.10;1.63;;;12.70;99.90;;;;;;4986176;28;20380;-85
2022/10/03 03:04:36;;;;;;;3.83;2.10;;;12.60;99.90;;;;;;4989590;28;20042;-83
2022/10/03 03:07:13;;;;;;;6.18;1.85;;;12.60;99.90;;;;;;4998168;28;20019;-82
2022/10/03 03:10:07;;;;;;;7.93;1.63;;;12.60;99.90;;;;;;4998555;28;20042;-82
2022/10/03 03:13:15;;;;;;;14.95;3.25;;;12.60;99.90;;;;;;4999298;28;20035;-83
2022/10/03 03:16:00;;;;;;;4.82;1.83;;;12.60;99.90;;;;;;5027212;23;20067;-83
2022/10/03 03:18:35;;;;;;;8.35;1.73;;;12.70;99.90;;;;;;5076464;28;20071;-82
2022/10/03 03:21:10;;;;;;;3.20;1.50;;;12.70;99.90;;;;;;5071593;28;20055;-83
2022/10/03 03:23:59;;;;;;;4.15;1.90;;;12.70;99.90;;;;;;5067466;28;20036;-83
2022/10/03 03:27:02;;;;;;;4.10;1.88;;;12.70;99.90;;;;;;5025453;28;20052;-83
2022/10/03 03:30:01;;;;;;;6.50;1.98;;;12.70;99.90;;;;;;5046182;28;20040;-84
2022/10/03 03:32:55;;;;;;;10.68;2.03;;;12.80;99.90;;;;;;5045807;28;20045;-83
2022/10/03 03:35:44;;;;;;;6.45;1.75;;;12.80;99.90;;;;;;5046123;28;20033;-84
2022/10/03 03:38:34;;;;;;;5.30;2.65;;;12.80;99.90;;;;;;5049448;28;20145;-84
2022/10/03 03:41:22;;;;;;;3.72;1.80;;;12.80;99.90;;;;;;5047212;28;20033;-84
2022/10/03 03:44:18;;;;;;;5.82;2.05;;;12.80;99.90;;;;;;5048414;28;20492;-82
2022/10/03 03:47:00;;;;;;;4.53;1.63;;;12.80;99.90;;;;;;5046832;28;20029;-83
2022/10/03 03:49:30;;;;;;;4.82;2.67;;;12.70;99.90;;;;;;5047447;28;20044;-83
2022/10/03 03:52:20;;;;;;;6.65;2.17;;;12.70;99.90;;;;;;5048381;28;20029;-84
2022/10/03 03:55:20;;;;;;;5.38;1.83;;;12.70;99.90;;;;;;5048325;28;20422;-83
2022/10/03 03:57:48;;;;;;;7.57;1.95;;;12.70;99.90;;;;;;5049932;28;20052;-84
2022/10/03 04:00:25;;;;;;;5.63;2.00;;;12.70;99.90;;;;;;5055202;28;20060;-84
2022/10/03 04:03:28;;;;;;;4.75;1.92;;;12.70;99.90;;;;;;5053217;28;20038;-83
2022/10/03 04:06:05;;;;;;;5.90;1.60;;;12.80;99.90;;;;;;5055258;28;20035;-82
2022/10/03 04:08:47;;;;;;;5.20;1.77;;;12.70;99.90;;;;;;5049611;28;20052;-84
2022/10/03 04:11:27;;;;;;;8.70;2.15;;;12.70;99.90;;;;;;5028982;28;20028;-84
2022/10/03 04:13:56;;;;;;;5.53;1.67;;;12.70;99.90;;;;;;5034753;28;20022;-82
2022/10/03 04:20:20;;;;;;;6.00;1.60;;;12.70;99.90;;;;;;5036182;28;20068;-81
2022/10/03 04:23:04;;;;;;;8.00;2.10;;;12.60;99.90;;;;;;5030302;28;20463;-83
2022/10/03 04:25:45;;;;;;;5.53;2.40;;;12.60;99.90;;;;;;5023944;28;20025;-85
2022/10/03 04:28:38;;;;;;;7.28;1.98;;;12.60;99.90;;;;;;5022964;28;20026;-83
2022/10/03 04:31:24;;;;;;;2.55;1.60;;;12.60;99.90;;;;;;5027609;28;20045;-84
2022/10/03 04:34:09;;;;;;;4.13;2.22;;;12.60;99.90;;;;;;5029467;28;20090;-82
2022/10/03 04:36:46;;;;;;;5.60;2.05;;;12.50;99.90;;;;;;5027031;28;20609;-83
2022/10/03 04:39:43;;;;;;;5.97;1.63;;;12.50;99.90;;;;;;5023570;28;20030;-82
2022/10/03 04:42:20;;;;;;;8.80;2.10;;;12.50;99.90;;;;;;5024290;28;20030;-83
2022/10/03 04:44:48;;;;;;;6.68;1.95;;;12.50;99.90;;;;;;5027975;28;20025;-82
2022/10/03 04:47:45;;;;;;;6.32;2.13;;;12.50;99.90;;;;;;5036891;28;20066;-83
2022/10/03 04:50:11;;;;;;;6.85;1.80;;;12.50;99.90;;;;;;5032004;28;20026;-84
2022/10/03 04:53:10;;;;;;;10.02;2.42;;;12.50;99.90;;;;;;5031674;28;20030;-82
2022/10/03 04:55:41;;;;;;;6.93;2.00;;;12.50;99.90;;;;;;5032709;28;20037;-83
2022/10/03 04:58:17;;;;;;;11.75;2.40;;;12.50;99.90;;;;;;5034710;28;20055;-81
2022/10/03 05:00:53;;;;;;;7.35;2.10;;;12.50;99.90;;;;;;5015638;28;20026;-82
2022/10/03 05:03:40;;;;;;;6.65;1.85;;;12.50;99.90;;;;;;5031966;28;20037;-82
2022/10/03 05:06:33;;;;;;;9.13;1.75;;;12.50;99.90;;;;;;5027212;28;20033;-83
2022/10/03 05:09:31;;;;;;;9.43;2.13;;;12.50;99.90;;;;;;5027818;28;20022;-84
2022/10/03 05:12:27;;;;;;;7.07;1.73;;;12.60;99.90;;;;;;5029694;28;20094;-84
2022/10/03 05:15:13;;;;;;;;;;;12.60;99.90;;;;;;5011818;28;20048;-85
2022/10/03 05:18:03;;;;;;;6.57;1.98;;;12.60;99.90;;;;;;5030559;28;19992;-84
2022/10/03 05:20:53;;;;;;;7.47;1.95;;;12.70;99.90;;;;;;5037403;28;20033;-84
2022/10/03 05:24:01;;;;;;;13.18;2.35;;;12.70;99.90;;;;;;5038461;28;20053;-80
2022/10/03 05:26:50;;;;;;;12.52;3.25;;;12.70;99.90;;;;;;4987743;28;20078;-84
2022/10/03 05:29:39;;;;;;;9.32;2.08;;;12.70;99.90;;;;;;5028870;28;20037;-84
2022/10/03 05:32:14;;;;;;;10.60;1.80;;;12.80;99.90;;;;;;5024944;28;20052;-83
2022/10/03 05:35:12;;;;;;;15.20;2.65;;;12.70;99.90;;;;;;5031508;28;20110;-83
2022/10/03 05:38:16;;;;;;;10.77;2.08;;;12.80;99.90;;;;;;5037160;28;20389;-85
2022/10/03 05:41:00;;;;;;;9.80;1.83;;;12.80;99.90;;;;;;5037255;28;20022;-84
2022/10/03 05:43:35;;;;;;;15.95;2.42;;;12.90;99.90;;;;;;5029639;28;20058;-83
2022/10/03 05:46:18;;;;;;;10.52;2.00;;;12.90;99.90;;;;;;5029433;28;20026;-85
2022/10/03 05:49:22;;;;;;;3.85;1.70;;;12.90;99.90;;;;;;5036237;28;20101;-83
2022/10/03 05:52:06;;;;;;;7.05;1.90;;;13.00;99.90;;;;;;5028441;28;20065;-83
2022/10/03 05:54:51;;;;;;;17.40;2.10;;;13.10;99.90;;;;;;5035893;28;20040;-82
2022/10/03 05:57:26;;;;;;;12.20;2.17;;;13.20;99.90;;;;;;5038131;28;20078;-84
2022/10/03 06:00:10;;;;;;;9.90;1.73;;;13.30;99.90;;;;;;5047625;28;20079;-84
2022/10/03 06:02:45;;;;;;;13.48;2.17;;;13.30;99.90;;;;;;5031874;28;20038;-84
2022/10/03 06:05:38;;;;;;;7.50;2.65;;;13.30;99.90;;;;;;5027738;28;20038;-82
2022/10/03 06:08:32;;;;;;;10.07;2.20;;;13.40;99.90;;;;;;5026427;28;20040;-83
2022/10/03 06:11:27;;;;;;;13.70;2.30;;;13.40;99.90;;;;;;5049743;28;20025;-82
2022/10/03 06:14:12;;;;;;;;;;;13.50;99.90;;;;;;5052962;28;20037;-83
2022/10/03 06:17:14;;;;;;;4.78;1.70;;;13.50;99.90;;;;;;5044685;28;19996;-83
2022/10/03 06:19:51;;;;;;;11.25;2.00;;;13.60;99.90;;;;;;5004109;28;20057;-82
2022/10/03 06:22:55;;;;;;;11.00;1.70;;;13.50;99.90;;;;;;5031161;28;20106;-83
2022/10/03 06:25:24;;;;;;;14.48;1.85;;;13.50;99.90;;;;;;5033354;28;20418;-84
2022/10/03 06:28:08;;;;;;;8.73;1.58;;;13.50;99.90;;;;;;5030659;28;20026;-83
2022/10/03 06:30:58;;;;;;;10.50;2.03;;;13.40;99.90;;;;;;5064299;28;20391;-84
2022/10/03 06:33:40;;;;;;;11.77;2.03;;;13.40;99.90;;;;;;5054045;28;20093;-83
2022/10/03 06:36:25;;;;;;;5.03;1.30;;;13.40;99.90;;;;;;5046078;28;20037;-80
2022/10/03 06:39:18;;;;;;;7.50;1.50;;;13.40;99.90;;;;;;5027640;28;20049;-81
2022/10/03 06:42:21;;;;;;;8.20;1.67;;;13.50;99.90;;;;;;5033515;28;20185;-84
2022/10/03 06:45:08;;;;;;;10.00;1.67;;;13.70;99.90;;;;;;5038597;28;20026;-83
2022/10/03 06:47:43;;;;;;;9.63;2.05;;;13.90;99.90;;;;;;5057804;28;20033;-84
2022/10/03 06:50:27;;;;;;;14.75;1.85;;;14.00;99.90;;;;;;5036484;28;20101;-83
2022/10/03 06:53:30;;;;;;;7.55;1.80;;;14.00;99.90;;;;;;5024489;28;20034;-83
2022/10/03 06:56:31;;;;;;;8.00;1.52;;;14.00;99.90;;;;;;5025518;28;20026;-83
2022/10/03 06:59:12;;;;;;;11.10;1.95;;;13.90;99.90;;;;;;5011104;28;20054;-84
2022/10/03 07:02:16;;;;;;;9.13;2.15;;;13.80;99.90;;;;;;5024314;28;20033;-84
2022/10/03 07:05:03;;;;;;;8.27;1.80;;;13.80;99.90;;;;;;5026056;28;20069;-85
2022/10/03 07:07:48;;;;;;;13.20;1.50;;;13.80;99.90;;;;;;5035714;28;20089;-85
2022/10/03 07:11:15;;;;;;;16.58;1.95;;;13.90;99.90;;;;;;5032753;28;20113;-83
2022/10/03 07:13:59;;;;;;;10.05;1.55;;;13.90;99.90;;;;;;4994826;28;20030;-86
2022/10/03 07:17:06;;;;;;;9.40;1.87;;;14.10;99.90;;;;;;4951584;28;20042;-83
2022/10/03 07:19:54;;;;;;;5.07;1.40;;;14.20;99.90;;;;;;5025361;28;20038;-84
2022/10/03 07:22:38;;;;;;;9.77;1.92;;;14.30;99.90;;;;;;5036796;28;20089;-84
2022/10/03 07:25:42;;;;;;;4.43;1.40;;;14.40;99.90;;;;;;5033585;28;20469;-84
2022/10/03 07:28:51;;;;;;;19.90;1.90;;;14.60;99.90;;;;;;5032880;28;20022;-83
2022/10/03 07:31:40;;;;;;;10.88;1.45;;;14.60;99.90;;;;;;5034472;28;20029;-83
2022/10/03 07:34:40;;;;;;;6.78;1.30;;;14.50;99.90;;;;;;5032940;28;20081;-83
2022/10/03 07:40:43;;;;;;;7.60;1.60;;;14.60;99.90;;;;;;4981425;28;20491;-84
2022/10/03 07:43:14;;;;;;;6.10;1.73;;;14.70;99.90;;;;;;4982799;28;20045;-84
2022/10/03 07:45:46;;;;;;;5.78;1.23;;;14.80;99.90;;;;;;5018703;28;20034;-83
2022/10/03 07:48:38;;;;;;;6.80;1.67;;;14.90;99.90;;;;;;5022880;28;20350;-83
2022/10/03 07:51:17;;;;;;;7.85;1.60;;;15.00;99.90;;;;;;5023870;28;20053;-84
2022/10/03 07:54:17;;;;;;;11.38;1.80;;;15.00;99.90;;;;;;5038037;28;20117;-84
2022/10/03 07:56:52;;;;;;;9.25;1.40;;;15.00;99.90;;;;;;5021343;28;20034;-84
2022/10/03 07:59:33;;;;;;;9.40;1.38;;;15.10;99.90;;;;;;5021358;28;20041;-84
2022/10/03 08:01:59;;;;;;;8.40;1.77;;;15.20;99.90;;;;;;5023132;28;20025;-84
2022/10/03 08:04:54;;;;;;;6.68;1.27;;;15.40;99.90;;;;;;5022577;28;20125;-84
2022/10/03 08:07:39;;;;;;;5.95;1.33;;;15.50;99.90;;;;;;5035731;28;20100;-84
2022/10/03 08:10:38;;;;;;;5.25;1.63;;;15.30;99.90;;;;;;5048419;28;20025;-83
2022/10/03 08:13:32;;;;;;;11.50;1.55;;;15.20;99.90;;;;;;5044856;28;20081;-84
2022/10/03 08:16:09;;;;;;;12.75;1.77;;;15.20;99.90;;;;;;5055730;28;20071;-84
2022/10/03 08:18:54;;;;;;;12.55;1.63;;;15.10;99.90;;;;;;5041763;28;20523;-83
2022/10/03 08:21:53;;;;;;;9.85;1.65;;;15.30;99.90;;;;;;5044016;28;20398;-83
2022/10/03 08:24:41;;;;;;;9.45;1.48;;;15.40;99.90;;;;;;5028367;28;20033;-83
2022/10/03 08:27:36;;;;;;;16.13;2.08;;;15.40;99.90;;;;;;5045005;28;20053;-84
2022/10/03 08:30:20;;;;;;;11.60;1.65;;;15.40;99.90;;;;;;5045684;28;20089;-84
2022/10/03 08:32:58;;;;;;;11.05;1.67;;;15.60;99.90;;;;;;5045944;28;20512;-85
2022/10/03 08:35:39;;;;;;;7.65;1.65;;;15.70;99.90;;;;;;5046157;28;20500;-85
2022/10/03 08:38:32;;;;;;;8.88;1.30;;;15.70;99.90;;;;;;5043979;28;20072;-84
2022/10/03 08:41:41;;;;;;;6.57;1.23;;;15.70;99.90;;;;;;5045385;28;20040;-83
2022/10/03 08:44:45;;;;;;;8.18;1.50;;;15.80;99.90;;;;;;5044781;28;20033;-85
2022/10/03 08:47:27;;;;;;;7.03;1.17;;;16.10;99.90;;;;;;5045756;28;20038;-82
2022/10/03 08:50:31;;;;;;;7.63;1.58;;;16.60;99.90;;;;;;5046722;28;20039;-84
2022/10/03 08:53:00;;;;;;;8.18;1.35;;;17.20;99.90;;;;;;4969223;29;20039;-83
2022/10/03 08:55:47;;;;;;;4.72;1.63;;;17.00;99.90;;;;;;5031747;28;20037;-84
2022/10/03 08:58:22;;;;;;;6.97;1.42;;;17.30;99.90;;;;;;5045300;28;20040;-84
2022/10/03 09:01:09;;;;;;;6.85;1.20;;;18.20;99.90;;;;;;5047992;28;20025;-84
2022/10/03 09:03:44;;;;;;;5.50;1.10;;;18.30;99.90;;;;;;5051750;28;20018;-83
2022/10/03 09:06:28;;;;;;;;;;;17.80;99.90;;;;;;5054150;28;20057;-84
2022/10/03 09:09:09;;;;;;;8.88;1.10;;;17.50;99.90;;;;;;5053957;28;19909;-85
2022/10/03 09:11:59;;;;;;;4.70;1.20;;;17.10;99.90;;;;;;5054346;28;20034;-82
2022/10/03 09:14:30;;;;;;;6.38;1.15;;;16.90;99.90;;;;;;5051721;28;20037;-84
2022/10/03 09:17:44;;;;;;;5.90;1.45;;;16.60;99.90;;;;;;5063384;22;20080;-86
2022/10/03 09:20:40;;;;;;;11.30;1.58;;;16.50;99.90;;;;;;5037685;28;20132;-85
2022/10/03 09:23:33;;;;;;;12.20;1.08;;;16.40;99.90;;;;;;5032913;28;20037;-89
2022/10/03 09:26:35;;;;;;;4.07;1.00;;;16.60;99.90;;;;;;5038672;28;20054;-85
2022/10/03 09:29:25;;;;;;;5.63;1.17;;;17.20;99.90;;;;;;5037679;28;20033;-84
2022/10/03 09:32:32;;;;;;;5.13;1.05;;;18.10;99.70;;;;;;5037859;28;20099;-85
2022/10/03 09:35:22;;;;;;;5.55;1.10;;;18.20;99.30;;;;;;5038046;28;20120;-83
2022/10/03 09:38:06;;;;;;;4.45;1.17;;;17.90;99.80;;;;;;5031878;28;20038;-86
2022/10/03 09:41:10;;;;;;;4.28;1.00;;;17.70;99.90;;;;;;5029589;28;20030;-85
2022/10/03 09:44:01;;;;;;;4.18;1.00;;;17.50;99.80;;;;;;5027755;28;20029;-87
2022/10/03 09:49:49;;;;;;;3.67;1.00;;;18.60;98.20;;;;;;5029194;28;20072;-87
2022/10/03 09:52:14;;;;;;;;;;;19.60;96.90;;;;;;5029908;28;20045;-86
2022/10/03 09:54:52;;;;;;;4.70;1.05;;;21.30;94.50;;;;;;5031998;28;19912;-89
2022/10/03 09:57:30;;;;;;;6.90;1.33;;;22.60;92.10;;;;;;5029326;28;20041;-87
2022/10/03 10:00:09;;;;;;;3.72;1.02;;;24.00;89.70;;;;;;5031752;28;20040;-87
2022/10/03 10:03:13;;;;;;;5.35;1.00;;;25.80;83.50;;;;;;5034694;28;20046;-86
2022/10/03 10:06:00;;;;;;;2.28;0.80;;;26.10;78.60;;;;;;5035924;28;20031;-86
2022/10/03 10:08:57;;;;;;;3.60;1.05;;;25.40;76.40;;;;;;5035255;28;20083;-85
2022/10/03 10:11:30;;;;;;;4.43;0.95;;;25.10;76.80;;;;;;5035707;28;20041;-85
2022/10/03 10:14:20;;;;;;;7.10;1.20;;;26.10;75.10;;;;;;5036440;28;20026;-84
2022/10/03 10:16:49;;;;;;;2.95;0.98;;;25.50;75.20;;;;;;5036581;28;20045;-84
2022/10/03 10:19:35;;;;;;;2.75;0.90;;;26.10;73.70;;;;;;5038097;28;20028;-84
2022/10/03 10:22:26;;;;;;;2.25;0.90;;;26.90;72.70;;;;;;5038929;28;20026;-81
2022/10/03 10:25:24;;;;;;;5.47;1.20;;;27.40;70.40;;;;;;5037693;28;20046;-84
2022/10/03 10:28:18;;;;;;;4.45;1.48;;;26.60;68.80;;;;;;5038400;28;20034;-83
2022/10/03 10:31:21;;;;;;;1.75;0.90;;;25.70;70.70;;;;;;5038033;28;20022;-82
2022/10/03 10:34:12;;;;;;;7.40;1.10;;;25.60;70.30;;;;;;5037774;28;20026;-83
2022/10/03 10:36:53;;;;;;;2.92;0.70;;;24.60;70.70;;;;;;5038400;28;20037;-86
2022/10/03 10:39:57;;;;;;;4.65;0.80;;;23.80;72.00;;;;;;5037729;28;20037;-84
2022/10/03 10:42:26;;;;;;;5.60;0.63;;;23.50;72.60;;;;;;5037519;28;20032;-84
2022/10/03 10:45:23;;;;;;;3.88;0.77;;;23.50;72.10;;;;;;5037950;28;20042;-83
2022/10/03 10:48:20;;;;;;;5.97;1.08;;;22.00;74.20;;;;;;5038299;28;20042;-84
2022/10/03 10:51:24;;;;;;;12.70;1.13;;;20.60;77.00;;;;;;5037573;28;20038;-85
2022/10/03 10:54:14;;;;;;;3.05;0.70;;;19.90;78.90;;;;;;5038226;28;20034;-84
2022/10/03 10:57:02;;;;;;;5.13;0.88;;;19.50;81.70;;;;;;5037946;28;20045;-83
2022/10/03 11:00:03;;;;;;;3.75;0.90;;;18.90;82.90;;;;;;5038445;28;20022;-84
2022/10/03 11:02:34;;;;;;;8.43;1.08;;;18.50;84.40;;;;;;5038281;28;20045;-85
2022/10/03 11:05:22;;;;;;;7.57;1.00;;;18.20;85.70;;;;;;5038375;28;20029;-84
2022/10/03 11:07:57;;;;;;;5.38;1.13;;;17.80;87.20;;;;;;5037890;28;20045;-85
2022/10/03 11:10:34;;;;;;;9.90;0.90;;;18.60;87.00;;;;;;5037465;28;20029;-86
2022/10/03 11:13:22;;;;;;;3.58;0.70;;;20.50;83.30;;;;;;5036052;28;20117;-87
2022/10/03 11:16:25;;;;;;;5.82;1.05;;;22.90;78.20;;;;;;5034601;28;20034;-86
2022/10/03 11:19:04;;;;;;;3.90;0.98;;;24.70;74.50;;;;;;5032611;28;20034;-88
2022/10/03 11:21:45;;;;;;;8.80;1.20;;;26.20;71.70;;;;;;5031209;28;20030;-89
2022/10/03 11:24:43;;;;;;;7.20;0.85;;;26.20;69.90;;;;;;5031235;28;20070;-88
2022/10/03 11:27:21;;;;;;;4.90;1.02;;;25.50;70.50;;;;;;5030187;28;20034;-87
2022/10/03 11:30:11;;;;;;;6.97;1.00;;;24.10;71.50;;;;;;5031438;28;20090;-85
2022/10/03 11:33:00;;;;;;;4.68;1.05;;;23.80;73.40;;;;;;5028169;28;20045;-87
2022/10/03 11:35:58;;;;;;;6.85;0.85;;;24.40;71.20;;;;;;5030396;28;20088;-88
2022/10/03 11:38:29;;;;;;;6.95;0.75;;;24.20;70.40;;;;;;5030339;28;20030;-90
2022/10/03 11:41:37;;;;;;;5.60;0.95;;;23.40;71.90;;;;;;5032002;28;20042;-87
2022/10/03 11:45:01;;;;;;;8.63;1.38;;;23.20;72.70;;;;;;5030731;28;20058;-86
2022/10/03 11:47:41;;;;;;;4.15;0.85;;;22.50;74.40;;;;;;4959408;28;20090;-82
2022/10/03 11:50:18;;;;;;;4.88;0.63;;;23.60;72.20;;;;;;4961672;28;20019;-83
2022/10/03 11:53:10;;;;;;;3.78;0.88;;;24.50;71.20;;;;;;5024473;28;20130;-82
2022/10/03 11:55:50;;;;;;;5.70;0.75;;;24.40;71.10;;;;;;5018800;28;20029;-85
2022/10/03 11:58:21;;;;;;;5.15;1.10;;;23.20;73.40;;;;;;5036774;28;20034;-84
2022/10/03 12:00:59;;;;;;;4.22;1.05;;;22.30;74.70;;;;;;5036676;28;20014;-85
2022/10/03 12:03:29;;;;;;;7.15;1.38;;;22.10;76.10;;;;;;5036920;28;20029;-87
2022/10/03 12:08:59;;;;;;;7.55;0.95;;;24.00;73.10;;;;;;5034814;28;20059;-85
2022/10/03 12:11:32;;;;;;;7.38;1.05;;;25.30;71.50;;;;;;5036918;28;20049;-84
2022/10/03 12:14:16;;;;;;;2.47;0.77;;;25.50;69.90;;;;;;5035842;28;20026;-82
2022/10/03 12:17:01;;;;;;;8.18;0.82;;;26.20;68.80;;;;;;5036484;28;20040;-82
2022/10/03 12:19:36;;;;;;;3.38;0.55;;;26.30;68.20;;;;;;5036047;28;20053;-87
2022/10/03 12:22:25;;;;;;;3.72;0.80;;;26.40;68.30;;;;;;5037296;28;20030;-85
2022/10/03 12:24:57;;;;;;;21.33;1.85;;;26.70;68.10;;;;;;5037163;28;20053;-84
2022/10/03 12:27:41;;;;;;;14.75;1.23;;;25.40;68.50;;;;;;5036101;28;20021;-87
2022/10/03 12:30:15;;;;;;;9.98;1.02;;;24.90;68.90;;;;;;5035137;28;20034;-87
2022/10/03 12:33:27;;;;;;;4.22;0.90;;;24.70;69.10;;;;;;5035851;28;20034;-86
2022/10/03 12:36:41;;;;;;;5.53;0.82;;;24.60;69.20;;;;;;5005534;28;20040;-87
2022/10/03 12:39:32;;;;;;;5.60;0.98;;;25.00;68.90;;;;;;4975879;28;20038;-85
2022/10/03 12:42:21;;;;;;;6.32;0.80;;;25.60;68.40;;;;;;5034863;28;20072;-84
2022/10/03 12:45:23;;;;;;;5.00;0.80;;;25.30;68.70;;;;;;5037414;28;20037;-84
2022/10/03 12:47:52;;;;;;;4.13;0.80;;;24.50;69.90;;;;;;5036720;28;20018;-84
2022/10/03 12:50:43;;;;;;;1.17;0.60;;;22.50;72.70;;;;;;5036278;28;20018;-86
2022/10/03 12:53:14;;;;;;;7.45;0.98;;;20.80;76.50;;;;;;5036562;28;20041;-84
2022/10/03 12:55:59;;;;;;;2.05;0.80;;;20.20;78.20;;;;;;5036223;28;20022;-82
2022/10/03 12:58:47;;;;;;;2.17;0.63;;;20.50;77.50;;;;;;5036045;28;20034;-83
2022/10/03 13:01:28;;;;;;;4.18;0.73;;;22.20;75.40;;;;;;5036780;28;20032;-84
2022/10/03 13:04:28;;;;;;;9.25;1.00;;;23.70;71.70;;;;;;5036522;28;20086;-84
2022/10/03 13:07:25;;;;;;;1.55;0.60;;;24.50;70.70;;;;;;5037127;28;20024;-84
2022/10/03 13:10:03;;;;;;;3.88;0.73;;;25.70;68.40;;;;;;5038630;28;20102;-84
2022/10/03 13:12:46;;;;;;;3.70;0.70;;;26.10;67.00;;;;;;5039487;28;20033;-85
2022/10/03 13:15:51;;;;;;;1.30;0.50;;;25.00;67.70;;;;;;5038304;28;20036;-86
2022/10/03 13:18:37;;;;;;;3.50;1.00;;;23.50;69.90;;;;;;5038660;28;20085;-85
2022/10/03 13:21:10;;;;;;;6.03;1.00;;;21.80;72.50;;;;;;5038051;28;20033;-85
2022/10/03 13:24:01;;;;;;;4.30;1.10;;;20.50;74.90;;;;;;5038033;28;20065;-85
2022/10/03 13:26:57;;;;;;;1.90;0.77;;;19.90;76.60;;;;;;5039201;28;20034;-83
2022/10/03 13:29:47;;;;;;;1.42;0.60;;;19.50;78.10;;;;;;5038134;28;20033;-87
2022/10/03 13:32:30;;;;;;;2.70;0.70;;;19.10;79.30;;;;;;5035899;28;20038;-87
2022/10/03 13:38:17;;;;;;;4.80;0.65;;;18.60;81.40;;;;;;5037589;28;20038;-85
2022/10/03 13:41:14;;;;;;;4.20;1.10;;;18.30;82.70;;;;;;5037725;28;20053;-85
2022/10/03 13:44:09;;;;;;;3.35;0.82;;;18.10;84.00;;;;;;5034804;28;20038;-89
2022/10/03 13:46:45;;;;;;;4.28;0.73;;;18.10;84.60;;;;;;5035548;28;20050;-86
2022/10/03 13:49:30;;;;;;;6.13;1.15;;;18.00;85.10;;;;;;5038103;28;20037;-84
2022/10/03 13:52:10;;;;;;;2.38;0.68;;;17.80;86.10;;;;;;5038226;28;20018;-84
2022/10/03 13:55:00;;;;;;;4.30;0.70;;;17.70;85.80;;;;;;5038744;28;20030;-82
2022/10/03 13:57:38;;;;;;;3.03;0.60;;;17.50;85.70;;;;;;5037740;28;20061;-86
2022/10/03 14:00:11;;;;;;;4.47;0.65;;;17.40;85.70;;;;;;5035736;28;20056;-88
2022/10/03 14:02:58;;;;;;;2.75;0.57;;;17.30;85.00;;;;;;5037378;28;20129;-87
2022/10/03 14:05:27;;;;;;;5.68;0.82;;;17.10;85.70;;;;;;5037249;28;20038;-86
2022/10/03 14:08:06;;;;;;;3.10;0.80;;;17.00;86.30;;;;;;5036244;28;20089;-84
2022/10/03 14:10:55;;;;;;;8.35;0.90;;;16.90;87.30;;;;;;5031944;28;20014;-85
2022/10/03 14:13:35;;;;;;;5.47;0.75;;;16.80;88.00;;;;;;5015633;28;20022;-88
2022/10/03 14:16:19;;;;;;;8.43;0.93;;;16.80;88.40;;;;;;5000213;28;20022;-84
2022/10/03 14:18:58;;;;;;;3.30;0.60;;;16.60;89.20;;;;;;5014608;28;20034;-86
2022/10/03 14:21:39;;;;;;;5.65;0.70;;;16.50;89.60;;;;;;5018335;28;20019;-86
2022/10/03 14:24:19;;;;;;;1.92;0.73;;;16.40;90.20;;;;;;5017614;28;20042;-85
2022/10/03 14:27:30;;;;;;;7.05;1.00;;;16.30;90.80;;;;;;5028203;28;20057;-84
2022/10/03 14:30:11;;;;;;;2.55;0.80;;;16.30;91.40;;;;;;5033377;28;20030;-84
2022/10/03 14:33:10;;;;;;;3.67;0.80;;;16.20;91.70;;;;;;5032546;28;20038;-86
2022/10/03 14:36:02;;;;;;;9.10;1.35;;;16.20;91.80;;;;;;5034704;28;20048;-88
2022/10/03 14:39:06;;;;;;;3.58;0.70;;;16.20;92.20;;;;;;5018637;28;20042;-84
2022/10/03 14:42:06;;;;;;;3.00;0.80;;;16.10;92.60;;;;;;5017438;28;20081;-86
2022/10/03 14:44:46;;;;;;;5.90;1.10;;;16.20;93.00;;;;;;5018502;28;20010;-85
2022/10/03 14:47:16;;;;;;;2.83;0.88;;;16.20;93.20;;;;;;5026380;28;20026;-86
2022/10/03 14:49:54;;;;;;;9.23;0.90;;;16.00;93.40;;;;;;5037418;28;20026;-84